Terminal Aerodrome Forecast
Issued by NWS

Home | Current Version | Previous Version | Text Only | Print | Product List | Glossary On
Versions: 1 2 3 4 5 6 7 8 9 10 11 12 13 14 15 16 17 18 19 20 21 22 23 24
411
FTUS41 KALY 021740
TAFPSF
TAF
KPSF 021740Z 0218/0318 VRB06KT 6SM -DZ BR SCT008 OVC015
      TEMPO 0218/0222 2SM -DZ BR OVC008
     FM022200 20004KT P6SM SCT007 OVC025
     FM030900 28003KT 6SM -RA BR BKN007 OVC025
     FM031500 VRB03KT P6SM BKN007 OVC015=

USA.gov is the U.S. government's official web portal to all federal, state and local government web resources and services.